Terminal Aerodrome Forecast
Issued by NWS Grand Junction, CO

Home | Current Version | Previous Version | Text Only | Print | Product List | Glossary On
Versions: 1 2 3 4 5 6 7 8 9 10 11 12 13 14 15 16 17 18 19 20 21 22 23 24 25 26 27 28
000
FTUS45 KGJT 231133
TAFGJT
TAF
KGJT 231133Z 2312/2412 13016G23KT P6SM -RA OVC090
      TEMPO 2312/2315 P6SM NSW
     FM231500 14005KT P6SM VCSH BKN060 BKN070
     FM231900 18006KT P6SM SCT060 BKN080
     FM232000 21007KT P6SM SCT070 BKN090
     FM240200 13004KT P6SM FEW070 SCT130=

USA.gov is the U.S. government's official web portal to all federal, state and local government web resources and services.